createdAt,value
2023-04-27T00:01:18.938Z,11.79
2023-04-27T00:03:46.829Z,11.82
2023-04-27T00:06:14.564Z,11.87
2023-04-27T00:08:42.273Z,11.85
2023-04-27T00:11:09.961Z,11.89
2023-04-27T00:13:37.465Z,11.88
2023-04-27T00:16:05.427Z,11.94
2023-04-27T00:18:33.096Z,12.04
2023-04-27T00:21:01.144Z,12.10
2023-04-27T00:23:28.872Z,12.15
2023-04-27T00:25:56.584Z,12.15
2023-04-27T00:28:24.109Z,12.22
2023-04-27T00:30:54.667Z,12.24
2023-04-27T00:33:22.203Z,12.22
2023-04-27T00:35:49.830Z,12.20
2023-04-27T00:38:17.522Z,12.21
2023-04-27T00:40:45.149Z,12.19
2023-04-27T00:43:12.942Z,12.14
2023-04-27T00:45:43.590Z,12.16
2023-04-27T00:48:12.488Z,12.16
2023-04-27T00:50:41.980Z,12.11
2023-04-27T00:53:09.653Z,12.02
2023-04-27T00:55:37.171Z,12.03
2023-04-27T00:58:04.872Z,11.96
2023-04-27T01:00:32.757Z,12.00
2023-04-27T01:03:02.791Z,11.99
2023-04-27T01:05:32.486Z,11.94
2023-04-27T01:08:00.481Z,11.94
2023-04-27T01:10:28.678Z,11.94
2023-04-27T01:12:56.474Z,11.94
2023-04-27T01:15:24.183Z,11.94
2023-04-27T01:18:01.514Z,11.95
2023-04-27T01:20:32.821Z,11.92
2023-04-27T01:23:00.437Z,11.87
2023-04-27T01:25:27.987Z,11.84
2023-04-27T01:27:55.577Z,11.81
2023-04-27T01:30:23.383Z,11.73
2023-04-27T01:32:51.140Z,11.70
2023-04-27T01:35:20.507Z,11.70
2023-04-27T01:37:48.178Z,11.64
2023-04-27T01:40:18.644Z,11.66
2023-04-27T01:42:48.210Z,11.59
2023-04-27T01:45:16.213Z,11.60
2023-04-27T01:47:44.080Z,11.57
2023-04-27T01:50:12.616Z,11.54
2023-04-27T01:52:40.725Z,11.55
2023-04-27T01:55:10.197Z,11.54
2023-04-27T01:57:38.536Z,11.56
2023-04-27T02:00:07.011Z,11.48
2023-04-27T02:02:57.597Z,11.55
2023-04-27T02:05:25.483Z,11.50
2023-04-27T02:07:54.660Z,11.52
2023-04-27T02:10:23.974Z,11.50
2023-04-27T02:12:57.582Z,11.46
2023-04-27T02:15:26.063Z,11.47
2023-04-27T02:17:53.785Z,11.46
2023-04-27T02:20:21.528Z,11.46
2023-04-27T02:22:49.192Z,11.49
2023-04-27T02:25:17.092Z,11.55
2023-04-27T02:27:44.916Z,11.54
2023-04-27T02:30:14.949Z,11.60
2023-04-27T02:32:42.931Z,11.59
2023-04-27T02:35:11.146Z,11.58
2023-04-27T02:37:38.768Z,11.60
2023-04-27T02:40:10.376Z,11.63
2023-04-27T02:42:39.087Z,11.63
2023-04-27T02:45:08.374Z,11.66
2023-04-27T02:47:37.922Z,11.72
2023-04-27T02:50:06.083Z,11.77
2023-04-27T02:52:35.843Z,11.83
2023-04-27T02:55:04.061Z,11.84
2023-04-27T02:57:33.988Z,11.95
2023-04-27T03:00:03.606Z,12.01
2023-04-27T03:02:32.855Z,12.10
2023-04-27T03:05:03.956Z,12.13
2023-04-27T03:07:32.265Z,12.19
2023-04-27T03:09:59.855Z,12.26
2023-04-27T03:12:31.720Z,12.37
2023-04-27T03:15:01.213Z,12.50
2023-04-27T03:17:32.197Z,12.61
2023-04-27T03:19:59.837Z,12.70
2023-04-27T03:22:27.724Z,12.82
2023-04-27T03:24:55.270Z,12.87
2023-04-27T03:27:23.238Z,13.05
2023-04-27T03:29:54.322Z,13.20
2023-04-27T03:32:22.285Z,13.34
2023-04-27T03:34:49.903Z,13.46
2023-04-27T03:37:18.445Z,13.51
2023-04-27T03:39:46.087Z,13.57
2023-04-27T03:42:14.015Z,13.60
2023-04-27T03:44:41.746Z,13.66
2023-04-27T03:47:09.909Z,13.83
2023-04-27T03:49:39.781Z,14.00
2023-04-27T03:52:08.712Z,14.19
2023-04-27T03:54:39.960Z,14.35
2023-04-27T03:57:07.837Z,14.51
2023-04-27T03:59:36.778Z,14.68
2023-04-27T04:02:05.874Z,14.80
2023-04-27T04:04:33.761Z,14.87
2023-04-27T04:07:01.863Z,14.99
2023-04-27T04:09:29.764Z,15.15
2023-04-27T04:11:57.989Z,15.23
2023-04-27T04:14:25.728Z,15.29
2023-04-27T04:16:53.254Z,15.41
2023-04-27T04:19:22.275Z,15.56
2023-04-27T04:21:50.061Z,15.66
2023-04-27T04:24:19.073Z,15.77
2023-04-27T04:26:47.326Z,15.91
2023-04-27T04:29:15.512Z,16.03
2023-04-27T04:31:43.693Z,16.12
2023-04-27T04:34:11.494Z,16.18
2023-04-27T04:36:38.969Z,16.28
2023-04-27T04:39:07.220Z,16.40
2023-04-27T04:41:34.855Z,16.60
2023-04-27T04:44:03.288Z,16.73
2023-04-27T04:46:31.108Z,16.87
2023-04-27T04:48:58.852Z,16.95
2023-04-27T04:51:26.575Z,17.11
2023-04-27T04:53:54.139Z,17.28
2023-04-27T04:56:24.035Z,17.48
2023-04-27T04:58:52.049Z,17.60
2023-04-27T05:01:19.667Z,17.71
2023-04-27T05:03:49.523Z,17.86
2023-04-27T05:06:17.170Z,18.04
2023-04-27T05:08:44.639Z,18.18
2023-04-27T05:11:12.146Z,18.30
2023-04-27T05:13:40.478Z,18.40
2023-04-27T05:16:08.880Z,18.53
2023-04-27T05:18:36.589Z,18.66
2023-04-27T05:21:04.079Z,18.83
2023-04-27T05:23:31.665Z,18.87
2023-04-27T05:25:59.205Z,18.92
2023-04-27T05:28:27.229Z,18.92
2023-04-27T05:30:55.176Z,19.03
2023-04-27T05:33:23.644Z,19.20
2023-04-27T05:35:52.482Z,19.26
2023-04-27T05:38:19.932Z,19.29
2023-04-27T05:40:47.619Z,19.34
2023-04-27T05:43:15.584Z,19.32
2023-04-27T05:45:43.408Z,19.36
2023-04-27T05:48:11.054Z,19.42
2023-04-27T05:50:38.755Z,19.57
2023-04-27T05:53:07.244Z,19.62
2023-04-27T05:55:34.807Z,19.66
2023-04-27T05:58:08.231Z,19.59
2023-04-27T06:00:37.258Z,19.60
2023-04-27T06:03:05.372Z,19.60
2023-04-27T06:05:34.609Z,19.65
2023-04-27T06:08:02.414Z,19.78
2023-04-27T06:10:30.131Z,19.85
2023-04-27T06:13:00.917Z,19.87
2023-04-27T06:15:28.845Z,19.85
2023-04-27T06:17:56.924Z,19.80
2023-04-27T06:20:24.691Z,19.83
2023-04-27T06:22:52.701Z,19.89
2023-04-27T06:25:20.290Z,20.01
2023-04-27T06:27:49.499Z,20.25
2023-04-27T06:30:17.888Z,20.46
2023-04-27T06:32:46.205Z,20.74
2023-04-27T06:35:13.988Z,21.03
2023-04-27T06:37:42.003Z,21.22
2023-04-27T06:40:09.950Z,21.45
2023-04-27T06:42:37.982Z,21.63
2023-04-27T06:45:07.381Z,21.86
2023-04-27T06:47:35.213Z,22.28
2023-04-27T06:50:04.173Z,22.57
2023-04-27T06:52:33.826Z,22.60
2023-04-27T06:55:01.632Z,22.62
2023-04-27T06:57:32.791Z,22.87
2023-04-27T07:00:00.754Z,23.09
2023-04-27T07:02:28.535Z,23.44
2023-04-27T07:04:56.247Z,23.54
2023-04-27T07:07:24.089Z,23.75
2023-04-27T07:09:51.960Z,24.10
2023-04-27T07:12:19.540Z,24.10
2023-04-27T07:14:47.161Z,24.19
2023-04-27T07:17:14.723Z,24.59
2023-04-27T07:19:42.499Z,25.11
2023-04-27T07:22:10.348Z,25.50
2023-04-27T07:24:37.993Z,25.73
2023-04-27T07:27:05.575Z,25.92
2023-04-27T07:29:33.792Z,26.28
2023-04-27T07:32:02.335Z,26.39
2023-04-27T07:34:41.180Z,26.56
2023-04-27T07:37:17.636Z,27.13
2023-04-27T07:39:45.105Z,26.76
2023-04-27T07:42:12.739Z,26.95
2023-04-27T07:44:41.063Z,27.16
2023-04-27T07:47:09.109Z,27.53
2023-04-27T07:49:38.446Z,27.69
2023-04-27T07:52:06.263Z,27.72
2023-04-27T07:54:35.132Z,27.72
2023-04-27T07:57:09.116Z,27.99
2023-04-27T07:59:37.211Z,28.12
2023-04-27T08:02:18.573Z,28.47
2023-04-27T08:04:48.956Z,28.73
2023-04-27T08:07:18.004Z,29.00
2023-04-27T08:09:45.954Z,29.13
2023-04-27T08:12:13.898Z,29.42
2023-04-27T08:14:41.479Z,29.93
2023-04-27T08:17:09.297Z,30.42
2023-04-27T08:19:37.260Z,30.88
2023-04-27T08:22:05.227Z,30.93
2023-04-27T08:24:33.079Z,31.17
2023-04-27T08:27:01.077Z,31.57
2023-04-27T08:29:29.340Z,32.07
2023-04-27T08:32:00.121Z,32.31
2023-04-27T08:34:29.211Z,32.58
2023-04-27T08:36:57.349Z,33.29
2023-04-27T08:39:25.621Z,33.56
2023-04-27T08:41:53.570Z,33.60
2023-04-27T08:44:21.290Z,33.55
2023-04-27T08:46:49.724Z,33.64
2023-04-27T08:49:17.931Z,34.20
2023-04-27T08:51:45.662Z,34.28
2023-04-27T08:54:13.333Z,33.97
2023-04-27T08:56:41.055Z,33.53
2023-04-27T08:59:16.295Z,33.19
2023-04-27T09:01:46.534Z,33.41
2023-04-27T09:04:14.592Z,34.18
2023-04-27T09:06:42.474Z,34.70
2023-04-27T09:09:11.512Z,34.87
2023-04-27T09:11:39.832Z,34.76
2023-04-27T09:14:21.038Z,35.22
2023-04-27T09:16:59.464Z,36.00
2023-04-27T09:19:29.399Z,35.89
2023-04-27T09:22:07.676Z,35.75
2023-04-27T09:24:35.869Z,35.72
2023-04-27T09:27:05.236Z,36.18
2023-04-27T09:29:38.111Z,36.75
2023-04-27T09:32:20.898Z,37.52
2023-04-27T09:34:48.637Z,36.89
2023-04-27T09:37:16.764Z,36.68
2023-04-27T09:39:46.348Z,37.31
2023-04-27T09:42:14.015Z,37.98
2023-04-27T09:44:41.629Z,37.03
2023-04-27T09:47:10.892Z,36.25
2023-04-27T09:49:39.014Z,36.56
2023-04-27T09:52:06.771Z,36.71
2023-04-27T09:54:35.912Z,36.74
2023-04-27T09:57:46.870Z,37.46
2023-04-27T10:00:23.638Z,37.52
2023-04-27T10:03:00.082Z,37.45
2023-04-27T10:05:41.138Z,37.58
2023-04-27T10:08:10.475Z,37.06
2023-04-27T10:10:48.756Z,36.67
2023-04-27T10:13:24.893Z,36.38
2023-04-27T10:15:53.731Z,36.09
2023-04-27T10:18:31.288Z,36.93
2023-04-27T10:21:10.678Z,37.66
2023-04-27T10:23:48.572Z,38.21
2023-04-27T10:26:26.737Z,38.99
2023-04-27T10:29:01.208Z,38.80
2023-04-27T10:31:30.114Z,38.53
2023-04-27T10:34:11.422Z,38.60
2023-04-27T10:36:41.093Z,36.72
2023-04-27T10:39:25.561Z,34.56
2023-04-27T10:42:01.209Z,31.95
2023-04-27T10:44:31.369Z,30.33
2023-04-27T10:47:01.659Z,28.77
2023-04-27T10:49:30.769Z,27.77
2023-04-27T10:51:59.849Z,27.00
2023-04-27T10:54:29.215Z,26.52
2023-04-27T10:57:10.985Z,26.18
2023-04-27T10:59:52.439Z,25.52
2023-04-27T11:02:28.268Z,24.65
2023-04-27T11:04:56.749Z,24.04
2023-04-27T11:07:29.271Z,23.59
2023-04-27T11:09:57.058Z,22.91
2023-04-27T11:12:24.864Z,22.07
2023-04-27T11:14:58.669Z,21.48
2023-04-27T11:17:30.741Z,20.91
2023-04-27T11:19:58.358Z,20.64
2023-04-27T11:22:26.039Z,20.73
2023-04-27T11:24:53.825Z,22.72
2023-04-27T11:27:23.503Z,25.82
2023-04-27T11:29:51.185Z,28.09
2023-04-27T11:32:23.423Z,30.42
2023-04-27T11:34:54.669Z,31.72
2023-04-27T11:37:25.687Z,31.55
2023-04-27T11:40:00.074Z,31.49
2023-04-27T11:42:29.021Z,31.45
2023-04-27T11:45:11.126Z,30.67
2023-04-27T11:47:41.094Z,29.59
2023-04-27T11:50:09.460Z,29.84
2023-04-27T11:52:40.331Z,31.47
2023-04-27T11:55:10.826Z,31.14
2023-04-27T11:57:38.980Z,29.54
2023-04-27T12:00:11.484Z,27.89
2023-04-27T12:02:44.735Z,26.82
2023-04-27T12:05:15.556Z,27.80
2023-04-27T12:07:43.623Z,27.77
2023-04-27T12:10:11.920Z,28.04
2023-04-27T12:12:39.648Z,28.44
2023-04-27T12:15:08.684Z,28.88
2023-04-27T12:17:39.217Z,29.39
2023-04-27T12:20:07.445Z,29.36
2023-04-27T12:22:36.342Z,29.14
2023-04-27T12:25:05.386Z,29.04
2023-04-27T12:27:34.507Z,28.93
2023-04-27T12:30:02.228Z,29.29
2023-04-27T12:32:33.019Z,30.27
2023-04-27T12:35:00.786Z,31.30
2023-04-27T12:37:31.621Z,31.78
2023-04-27T12:39:59.253Z,32.18
2023-04-27T12:42:26.968Z,32.25
2023-04-27T12:44:54.746Z,32.38
2023-04-27T12:47:43.110Z,32.87
2023-04-27T12:50:10.247Z,33.38
2023-04-27T12:52:37.890Z,32.60
2023-04-27T12:55:06.491Z,31.53
2023-04-27T12:57:34.505Z,31.39
2023-04-27T13:00:02.451Z,31.51
2023-04-27T13:02:34.118Z,32.19
2023-04-27T13:05:02.172Z,32.10
2023-04-27T13:07:31.254Z,31.19
2023-04-27T13:09:58.843Z,29.60
2023-04-27T13:12:26.840Z,28.16
2023-04-27T13:14:54.520Z,26.91
2023-04-27T13:17:22.253Z,25.72
2023-04-27T13:19:49.776Z,24.62
2023-04-27T13:22:17.426Z,24.05
2023-04-27T13:24:45.287Z,23.71
2023-04-27T13:27:13.057Z,23.44
2023-04-27T13:29:40.709Z,23.15
2023-04-27T13:32:08.403Z,22.96
2023-04-27T13:34:36.055Z,22.78
2023-04-27T13:37:04.383Z,22.58
2023-04-27T13:39:34.338Z,22.39
2023-04-27T13:42:02.178Z,22.22
2023-04-27T13:44:29.784Z,22.13
2023-04-27T13:46:57.769Z,21.88
2023-04-27T13:49:26.087Z,21.69
2023-04-27T13:51:53.608Z,21.61
2023-04-27T13:54:21.655Z,21.54
2023-04-27T13:56:49.270Z,21.51
2023-04-27T13:59:17.334Z,21.38
2023-04-27T14:01:45.051Z,21.38
2023-04-27T14:04:12.764Z,21.27
2023-04-27T14:06:40.646Z,21.16
2023-04-27T14:09:09.437Z,21.03
2023-04-27T14:11:48.605Z,20.90
2023-04-27T14:14:20.954Z,20.91
2023-04-27T14:16:49.066Z,20.86
2023-04-27T14:19:17.336Z,20.83
2023-04-27T14:21:45.521Z,20.74
2023-04-27T14:24:13.561Z,20.60
2023-04-27T14:26:44.126Z,20.61
2023-04-27T14:29:12.179Z,20.58
2023-04-27T14:31:40.885Z,20.45
2023-04-27T14:34:09.011Z,20.37
2023-04-27T14:36:36.755Z,20.34
2023-04-27T14:39:06.582Z,20.27
2023-04-27T14:41:35.621Z,20.23
2023-04-27T14:44:04.746Z,20.21
2023-04-27T14:46:32.474Z,20.15
2023-04-27T14:49:00.173Z,20.12
2023-04-27T14:51:28.970Z,20.05
2023-04-27T14:53:56.489Z,19.98
2023-04-27T14:56:24.280Z,20.01
2023-04-27T14:58:51.824Z,19.87
2023-04-27T15:01:19.549Z,19.84
2023-04-27T15:03:47.514Z,19.81
2023-04-27T15:06:15.501Z,19.78
2023-04-27T15:08:43.031Z,19.72
2023-04-27T15:11:10.825Z,19.65
2023-04-27T15:13:38.322Z,19.69
2023-04-27T15:16:07.463Z,19.69
2023-04-27T15:18:35.483Z,19.71
2023-04-27T15:21:03.878Z,19.73
2023-04-27T15:23:31.878Z,19.59
2023-04-27T15:25:59.467Z,19.58
2023-04-27T15:28:26.922Z,19.56
2023-04-27T15:30:54.638Z,19.48
2023-04-27T15:33:22.502Z,19.51
2023-04-27T15:35:50.644Z,19.43
2023-04-27T15:38:18.346Z,19.42
2023-04-27T15:40:45.856Z,19.43
2023-04-27T15:43:15.067Z,19.47
2023-04-27T15:45:44.186Z,19.40
2023-04-27T15:48:12.299Z,19.35
2023-04-27T15:50:40.268Z,19.35
2023-04-27T15:53:07.979Z,19.36
2023-04-27T15:55:35.617Z,19.33
2023-04-27T15:58:03.564Z,19.39
2023-04-27T16:00:31.240Z,19.36
2023-04-27T16:02:59.054Z,19.37
2023-04-27T16:05:26.986Z,19.36
2023-04-27T16:07:54.495Z,19.31
2023-04-27T16:10:22.073Z,19.23
2023-04-27T16:12:50.423Z,19.21
2023-04-27T16:15:18.578Z,19.23
2023-04-27T16:17:46.554Z,19.19
2023-04-27T16:20:14.327Z,19.07
2023-04-27T16:22:41.953Z,19.07
2023-04-27T16:25:12.576Z,19.00
2023-04-27T16:27:40.166Z,19.05
2023-04-27T16:30:08.309Z,19.02
2023-04-27T16:32:37.433Z,18.97
2023-04-27T16:35:05.625Z,18.87
2023-04-27T16:37:33.998Z,18.87
2023-04-27T16:40:06.867Z,18.82
2023-04-27T16:42:34.998Z,18.81
2023-04-27T16:45:03.105Z,18.78
2023-04-27T16:47:34.458Z,18.73
2023-04-27T16:50:02.549Z,18.73
2023-04-27T16:52:32.879Z,18.65
2023-04-27T16:55:00.737Z,18.67
2023-04-27T16:57:28.815Z,18.63
2023-04-27T17:00:01.095Z,18.60
2023-04-27T17:02:29.373Z,18.61
2023-04-27T17:04:59.654Z,18.57
2023-04-27T17:07:32.844Z,18.54
2023-04-27T17:10:00.744Z,18.49
2023-04-27T17:12:28.365Z,18.40
2023-04-27T17:14:56.302Z,18.41
2023-04-27T17:17:23.894Z,18.38
2023-04-27T17:19:51.609Z,18.34
2023-04-27T17:22:19.287Z,18.30
2023-04-27T17:24:46.963Z,18.30
2023-04-27T17:27:14.695Z,18.27
2023-04-27T17:29:42.215Z,18.25
2023-04-27T17:32:09.948Z,18.23
2023-04-27T17:34:37.721Z,18.16
2023-04-27T17:37:05.481Z,18.13
2023-04-27T17:39:33.773Z,18.09
2023-04-27T17:42:01.691Z,18.04
2023-04-27T17:44:29.316Z,18.03
2023-04-27T17:46:57.136Z,18.00
2023-04-27T17:49:24.687Z,18.00
2023-04-27T17:51:52.392Z,17.96
2023-04-27T17:54:19.974Z,17.95
2023-04-27T17:56:47.859Z,17.94
2023-04-27T17:59:15.596Z,17.90
2023-04-27T18:01:43.865Z,17.85
2023-04-27T18:04:11.501Z,17.83
2023-04-27T18:06:39.274Z,17.79
2023-04-27T18:09:06.884Z,17.76
2023-04-27T18:11:47.676Z,17.80
2023-04-27T18:14:15.704Z,17.73
2023-04-27T18:16:44.057Z,17.75
2023-04-27T18:19:12.236Z,17.71
2023-04-27T18:21:40.131Z,17.72
2023-04-27T18:24:08.603Z,17.67
2023-04-27T18:26:36.929Z,17.65
2023-04-27T18:29:04.638Z,17.67
2023-04-27T18:31:32.535Z,17.64
2023-04-27T18:34:00.155Z,17.60
2023-04-27T18:36:28.308Z,17.62
2023-04-27T18:38:58.064Z,17.61
2023-04-27T18:41:26.101Z,17.56
2023-04-27T18:43:53.725Z,17.54
2023-04-27T18:46:21.536Z,17.50
2023-04-27T18:48:49.186Z,17.46
2023-04-27T18:51:16.867Z,17.44
2023-04-27T18:53:44.360Z,17.39
2023-04-27T18:56:12.384Z,17.34
2023-04-27T18:58:39.918Z,17.35
2023-04-27T19:01:07.485Z,17.32
2023-04-27T19:03:35.375Z,17.31
2023-04-27T19:06:03.159Z,17.25
2023-04-27T19:08:30.898Z,17.26
2023-04-27T19:10:58.638Z,17.24
2023-04-27T19:13:27.386Z,17.24
2023-04-27T19:15:55.195Z,17.20
2023-04-27T19:18:22.946Z,17.17
2023-04-27T19:20:51.731Z,17.15
2023-04-27T19:23:19.509Z,17.13
2023-04-27T19:25:48.443Z,17.09
2023-04-27T19:28:18.858Z,17.07
2023-04-27T19:30:47.643Z,17.03
2023-04-27T19:33:19.645Z,17.02
2023-04-27T19:35:47.905Z,17.00
2023-04-27T19:38:15.441Z,17.00
2023-04-27T19:40:43.087Z,16.99
2023-04-27T19:43:12.005Z,16.94
2023-04-27T19:45:41.970Z,16.93
2023-04-27T19:48:09.639Z,16.90
2023-04-27T19:50:41.300Z,16.90
2023-04-27T19:53:09.106Z,16.84
2023-04-27T19:55:37.210Z,16.84
2023-04-27T19:58:04.872Z,16.82
2023-04-27T20:00:32.670Z,16.79
2023-04-27T20:03:00.509Z,16.71
2023-04-27T20:05:28.589Z,16.72
2023-04-27T20:07:56.321Z,16.69
2023-04-27T20:10:23.856Z,16.66
2023-04-27T20:12:56.887Z,16.62
2023-04-27T20:15:25.800Z,16.59
2023-04-27T20:17:53.874Z,16.56
2023-04-27T20:20:21.577Z,16.50
2023-04-27T20:22:49.683Z,16.49
2023-04-27T20:25:17.209Z,16.44
2023-04-27T20:27:44.854Z,16.41
2023-04-27T20:30:12.447Z,16.38
2023-04-27T20:32:40.507Z,16.36
2023-04-27T20:35:11.533Z,16.35
2023-04-27T20:37:42.051Z,16.33
2023-04-27T20:40:14.563Z,16.27
2023-04-27T20:42:42.655Z,16.23
2023-04-27T20:45:11.643Z,16.24
2023-04-27T20:47:39.299Z,16.19
2023-04-27T20:50:08.232Z,16.15
2023-04-27T20:52:36.005Z,16.15
2023-04-27T20:55:04.620Z,16.11
2023-04-27T20:57:32.462Z,16.08
2023-04-27T21:00:00.263Z,16.06
2023-04-27T21:02:28.017Z,15.99
2023-04-27T21:04:55.783Z,15.93
2023-04-27T21:07:23.487Z,15.89
2023-04-27T21:09:52.453Z,15.91
2023-04-27T21:12:20.070Z,15.87
2023-04-27T21:14:48.137Z,15.84
2023-04-27T21:17:15.724Z,15.79
2023-04-27T21:19:43.517Z,15.75
2023-04-27T21:22:11.269Z,15.76
2023-04-27T21:24:38.786Z,15.69
2023-04-27T21:27:06.597Z,15.63
2023-04-27T21:29:37.357Z,15.59
2023-04-27T21:32:05.120Z,15.54
2023-04-27T21:34:32.750Z,15.55
2023-04-27T21:37:00.277Z,15.51
2023-04-27T21:39:27.980Z,15.46
2023-04-27T21:41:55.550Z,15.44
2023-04-27T21:44:23.178Z,15.40
2023-04-27T21:46:51.543Z,15.38
2023-04-27T21:49:19.340Z,15.33
2023-04-27T21:51:46.966Z,15.32
2023-04-27T21:54:14.670Z,15.29
2023-04-27T21:56:42.702Z,15.29
2023-04-27T21:59:10.296Z,15.25
2023-04-27T22:01:38.000Z,15.24
2023-04-27T22:04:06.432Z,15.21
2023-04-27T22:06:34.153Z,15.23
2023-04-27T22:09:02.028Z,15.22
2023-04-27T22:11:29.760Z,15.16
2023-04-27T22:13:57.441Z,15.16
2023-04-27T22:16:25.051Z,15.09
2023-04-27T22:18:53.925Z,15.10
2023-04-27T22:21:21.666Z,15.06
2023-04-27T22:23:49.303Z,15.04
2023-04-27T22:26:17.293Z,15.01
2023-04-27T22:28:44.839Z,15.02
2023-04-27T22:31:12.536Z,15.09
2023-04-27T22:33:40.191Z,15.06
2023-04-27T22:36:08.148Z,15.02
2023-04-27T22:38:35.865Z,14.97
2023-04-27T22:41:03.399Z,14.96
2023-04-27T22:43:31.007Z,14.92
2023-04-27T22:45:58.498Z,14.83
2023-04-27T22:48:26.107Z,14.85
2023-04-27T22:50:53.699Z,14.82
2023-04-27T22:53:21.677Z,14.79
2023-04-27T22:55:49.299Z,14.81
2023-04-27T22:58:16.850Z,14.78
2023-04-27T23:00:44.453Z,14.73
2023-04-27T23:03:12.287Z,14.68
2023-04-27T23:05:40.220Z,14.62
2023-04-27T23:08:07.724Z,14.60
2023-04-27T23:10:38.798Z,14.56
2023-04-27T23:13:07.365Z,14.51
2023-04-27T23:15:35.012Z,14.53
2023-04-27T23:18:02.678Z,14.52
2023-04-27T23:20:30.372Z,14.52
2023-04-27T23:22:58.102Z,14.52
2023-04-27T23:25:25.670Z,14.51
2023-04-27T23:27:53.445Z,14.52
2023-04-27T23:30:22.090Z,14.50
2023-04-27T23:32:50.105Z,14.50
2023-04-27T23:35:17.852Z,14.41
2023-04-27T23:37:45.436Z,14.39
2023-04-27T23:40:13.249Z,14.33
2023-04-27T23:42:40.826Z,14.36
2023-04-27T23:45:08.597Z,14.28
2023-04-27T23:47:37.142Z,14.32
2023-04-27T23:50:05.324Z,14.26
2023-04-27T23:52:34.580Z,14.23
2023-04-27T23:55:02.274Z,14.21
2023-04-27T23:57:33.574Z,14.12
